createdAt,value
2018-03-20T00:00:38.192Z,35.96
2018-03-20T00:03:06.738Z,36.02
2018-03-20T00:05:35.252Z,36.00
2018-03-20T00:08:03.664Z,35.87
2018-03-20T00:10:32.467Z,36.11
2018-03-20T00:13:00.879Z,36.47
2018-03-20T00:15:29.441Z,36.46
2018-03-20T00:17:57.823Z,36.57
2018-03-20T00:20:26.461Z,36.71
2018-03-20T00:22:54.982Z,36.94
2018-03-20T00:25:23.456Z,37.12
2018-03-20T00:27:51.856Z,37.18
2018-03-20T00:30:20.268Z,36.93
2018-03-20T00:32:48.698Z,36.63
2018-03-20T00:35:17.112Z,36.52
2018-03-20T00:37:45.659Z,36.66
2018-03-20T00:40:14.050Z,36.88
2018-03-20T00:42:42.575Z,37.08
2018-03-20T00:45:11.021Z,37.47
2018-03-20T00:47:39.514Z,37.75
2018-03-20T00:50:08.049Z,37.90
2018-03-20T00:52:36.552Z,37.99
2018-03-20T00:55:04.936Z,38.04
2018-03-20T00:57:33.776Z,38.67
2018-03-20T01:00:02.209Z,38.86
2018-03-20T01:02:30.825Z,39.27
2018-03-20T01:04:59.327Z,39.29
2018-03-20T01:07:27.708Z,39.48
2018-03-20T01:09:56.980Z,39.22
2018-03-20T01:12:25.363Z,39.27
2018-03-20T01:14:53.764Z,39.17
2018-03-20T01:17:22.215Z,39.30
2018-03-20T01:19:50.745Z,39.46
2018-03-20T01:22:19.441Z,39.50
2018-03-20T01:24:48.048Z,39.37
2018-03-20T01:27:16.414Z,39.38
2018-03-20T01:29:44.853Z,39.70
2018-03-20T01:32:13.579Z,39.59
2018-03-20T01:34:42.117Z,39.81
2018-03-20T01:37:10.518Z,39.55
2018-03-20T01:39:39.094Z,39.16
2018-03-20T01:42:07.585Z,39.01
2018-03-20T01:44:36.093Z,39.08
2018-03-20T01:47:04.570Z,39.38
2018-03-20T01:49:33.065Z,39.29
2018-03-20T01:52:01.494Z,39.15
2018-03-20T01:54:30.053Z,39.20
2018-03-20T01:57:00.333Z,39.06
2018-03-20T01:59:28.833Z,39.19
2018-03-20T02:01:57.302Z,39.00
2018-03-20T02:04:25.705Z,38.92
2018-03-20T02:06:54.385Z,38.78
2018-03-20T02:09:22.762Z,38.65
2018-03-20T02:11:51.314Z,38.73
2018-03-20T02:14:19.914Z,38.52
2018-03-20T02:16:48.606Z,38.79
2018-03-20T02:19:17.144Z,38.89
2018-03-20T02:21:45.655Z,38.62
2018-03-20T02:24:14.167Z,38.43
2018-03-20T02:26:42.869Z,38.25
2018-03-20T02:29:11.457Z,37.95
2018-03-20T02:31:40.156Z,37.96
2018-03-20T02:34:08.719Z,37.88
2018-03-20T02:36:37.269Z,38.06
2018-03-20T02:39:05.873Z,37.91
2018-03-20T02:41:34.871Z,37.90
2018-03-20T02:44:03.310Z,38.12
2018-03-20T02:46:34.257Z,38.37
2018-03-20T02:49:03.181Z,38.24
2018-03-20T02:51:31.703Z,38.35
2018-03-20T02:54:00.171Z,38.75
2018-03-20T02:56:28.569Z,38.65
2018-03-20T02:58:57.161Z,38.85
2018-03-20T03:01:25.608Z,38.84
2018-03-20T03:03:54.083Z,38.66
2018-03-20T03:06:22.869Z,38.83
2018-03-20T03:08:51.596Z,38.87
2018-03-20T03:11:20.088Z,38.97
2018-03-20T03:13:48.652Z,39.00
2018-03-20T03:16:17.150Z,39.56
2018-03-20T03:18:45.666Z,39.70
2018-03-20T03:21:14.052Z,40.14
2018-03-20T03:23:42.518Z,40.38
2018-03-20T03:26:11.073Z,40.41
2018-03-20T03:28:39.469Z,40.75
2018-03-20T03:31:08.439Z,40.89
2018-03-20T03:33:37.012Z,40.88
2018-03-20T03:36:05.853Z,41.03
2018-03-20T03:38:34.337Z,41.39
2018-03-20T03:41:02.812Z,41.83
2018-03-20T03:43:31.781Z,42.06
2018-03-20T03:46:00.214Z,42.09
2018-03-20T03:48:28.598Z,42.00
2018-03-20T03:50:56.970Z,42.17
2018-03-20T03:53:25.339Z,42.70
2018-03-20T03:55:53.901Z,43.05
2018-03-20T03:58:22.502Z,43.49
2018-03-20T04:00:50.882Z,43.58
2018-03-20T04:03:19.381Z,43.80
2018-03-20T04:05:47.767Z,43.90
2018-03-20T04:08:16.151Z,43.97
2018-03-20T04:10:44.780Z,44.11
2018-03-20T04:13:13.458Z,44.12
2018-03-20T04:15:41.892Z,44.12
2018-03-20T04:18:11.125Z,43.85
2018-03-20T04:20:39.501Z,43.80
2018-03-20T04:23:07.905Z,44.07
2018-03-20T04:25:36.335Z,43.82
2018-03-20T04:28:04.928Z,43.21
2018-03-20T04:30:33.465Z,43.10
2018-03-20T04:33:02.177Z,42.99
2018-03-20T04:35:30.541Z,42.72
2018-03-20T04:37:58.991Z,42.65
2018-03-20T04:40:27.610Z,42.65
2018-03-20T04:42:56.033Z,42.81
2018-03-20T04:45:24.748Z,42.83
2018-03-20T04:47:53.410Z,42.54
2018-03-20T04:50:21.796Z,42.48
2018-03-20T04:52:50.381Z,42.78
2018-03-20T04:55:19.037Z,42.73
2018-03-20T04:57:47.466Z,42.39
2018-03-20T05:00:16.064Z,42.24
2018-03-20T05:02:44.588Z,41.69
2018-03-20T05:05:13.102Z,41.20
2018-03-20T05:07:41.473Z,40.60
2018-03-20T05:10:09.902Z,40.53
2018-03-20T05:12:38.380Z,39.84
2018-03-20T05:15:06.777Z,39.49
2018-03-20T05:17:35.268Z,39.51
2018-03-20T05:23:22.868Z,39.20
2018-03-20T05:25:51.426Z,38.87
2018-03-20T05:28:19.848Z,38.40
2018-03-20T05:30:48.230Z,38.36
2018-03-20T05:33:16.657Z,38.67
2018-03-20T05:35:45.241Z,38.65
2018-03-20T05:38:13.875Z,39.23
2018-03-20T05:40:42.441Z,39.59
2018-03-20T05:43:11.061Z,39.06
2018-03-20T05:45:39.580Z,38.90
2018-03-20T05:48:10.414Z,37.88
2018-03-20T05:53:58.057Z,37.83
2018-03-20T05:56:26.456Z,37.25
2018-03-20T05:58:54.963Z,37.00
2018-03-20T06:01:23.533Z,37.08
2018-03-20T06:03:52.014Z,36.87
2018-03-20T06:06:20.419Z,36.24
2018-03-20T06:08:48.912Z,36.16
2018-03-20T06:11:17.505Z,36.26
2018-03-20T06:13:45.981Z,36.21
2018-03-20T06:16:14.446Z,36.39
2018-03-20T06:18:42.896Z,36.97
2018-03-20T06:21:12.395Z,37.63
2018-03-20T06:23:40.950Z,38.62
2018-03-20T06:26:09.548Z,41.13
2018-03-20T06:28:38.221Z,41.94
2018-03-20T06:31:06.734Z,42.49
2018-03-20T06:33:35.149Z,43.46
2018-03-20T06:36:03.689Z,42.53
2018-03-20T06:38:32.498Z,43.55
2018-03-20T06:41:01.213Z,43.65
2018-03-20T06:43:29.621Z,46.04
2018-03-20T06:45:58.195Z,43.70
2018-03-20T06:48:26.734Z,45.39
2018-03-20T06:50:55.516Z,44.69
2018-03-20T06:53:24.274Z,45.06
2018-03-20T06:55:52.771Z,46.72
2018-03-20T06:58:21.360Z,47.51
2018-03-20T07:00:49.828Z,47.21
2018-03-20T07:03:18.335Z,48.83
2018-03-20T07:05:46.881Z,48.46
2018-03-20T07:08:15.371Z,48.01
2018-03-20T07:10:43.834Z,49.14
2018-03-20T07:13:12.371Z,49.00
2018-03-20T07:15:41.050Z,50.44
2018-03-20T07:18:09.440Z,50.13
2018-03-20T07:20:38.043Z,51.94
2018-03-20T07:23:06.427Z,51.98
2018-03-20T07:25:35.015Z,53.64
2018-03-20T07:28:03.404Z,52.38
2018-03-20T07:30:32.077Z,53.51
2018-03-20T07:33:00.545Z,52.98
2018-03-20T07:35:29.225Z,52.84
2018-03-20T07:37:57.584Z,52.63
2018-03-20T07:40:25.992Z,53.19
2018-03-20T07:42:54.418Z,53.30
2018-03-20T07:45:22.881Z,51.06
2018-03-20T07:47:52.437Z,52.50
2018-03-20T07:50:20.856Z,52.73
2018-03-20T07:52:49.430Z,51.81
2018-03-20T07:55:17.810Z,52.84
2018-03-20T07:57:46.248Z,53.92
2018-03-20T08:00:14.794Z,54.23
2018-03-20T08:02:43.162Z,53.40
2018-03-20T08:05:11.711Z,53.27
2018-03-20T08:07:40.093Z,53.65
2018-03-20T08:10:08.767Z,53.67
2018-03-20T08:12:37.358Z,54.95
2018-03-20T08:15:05.944Z,55.13
2018-03-20T08:17:34.447Z,55.13
2018-03-20T08:20:02.808Z,55.17
2018-03-20T08:22:31.200Z,54.46
2018-03-20T08:24:59.635Z,55.77
2018-03-20T08:27:28.077Z,55.31
2018-03-20T08:29:58.261Z,56.15
2018-03-20T08:32:26.956Z,56.28
2018-03-20T08:34:55.500Z,55.52
2018-03-20T08:37:24.074Z,56.80
2018-03-20T08:39:52.492Z,56.66
2018-03-20T08:42:20.872Z,56.71
2018-03-20T08:44:49.317Z,57.64
2018-03-20T08:47:17.727Z,57.04
2018-03-20T08:49:46.215Z,57.91
2018-03-20T08:52:14.681Z,57.13
2018-03-20T08:54:43.209Z,56.60
2018-03-20T08:57:12.134Z,56.21
2018-03-20T08:59:40.836Z,57.59
2018-03-20T09:02:09.250Z,56.77
2018-03-20T09:04:37.711Z,56.42
2018-03-20T09:07:06.309Z,56.49
2018-03-20T09:09:34.822Z,57.15
2018-03-20T09:12:03.240Z,56.49
2018-03-20T09:14:31.744Z,55.06
2018-03-20T09:17:00.453Z,57.59
2018-03-20T09:19:28.926Z,56.27
2018-03-20T09:21:57.598Z,55.55
2018-03-20T09:24:26.062Z,57.74
2018-03-20T09:26:54.523Z,57.23
2018-03-20T09:29:22.964Z,57.94
2018-03-20T09:31:51.424Z,56.09
2018-03-20T09:34:20.309Z,56.10
2018-03-20T09:36:48.884Z,55.13
2018-03-20T09:39:17.278Z,55.39
2018-03-20T09:41:45.710Z,56.52
2018-03-20T09:44:14.268Z,57.36
2018-03-20T09:46:42.854Z,57.46
2018-03-20T09:49:11.790Z,57.51
2018-03-20T09:51:40.314Z,57.58
2018-03-20T09:54:08.685Z,56.14
2018-03-20T09:56:37.071Z,58.74
2018-03-20T09:59:05.491Z,56.27
2018-03-20T10:01:33.908Z,56.12
2018-03-20T10:04:02.486Z,56.24
2018-03-20T10:06:30.956Z,55.59
2018-03-20T10:08:59.333Z,55.58
2018-03-20T10:11:28.654Z,55.69
2018-03-20T10:13:57.182Z,56.63
2018-03-20T10:16:25.665Z,58.10
2018-03-20T10:18:54.164Z,56.48
2018-03-20T10:21:22.827Z,55.54
2018-03-20T10:23:51.384Z,55.61
2018-03-20T10:26:19.898Z,55.18
2018-03-20T10:28:48.289Z,55.50
2018-03-20T10:31:16.673Z,54.34
2018-03-20T10:33:45.087Z,55.01
2018-03-20T10:36:13.669Z,56.17
2018-03-20T10:38:42.101Z,56.31
2018-03-20T10:41:10.537Z,56.25
2018-03-20T10:43:38.908Z,57.04
2018-03-20T10:46:07.373Z,61.35
2018-03-20T10:48:35.753Z,61.55
2018-03-20T10:51:04.335Z,60.32
2018-03-20T10:53:32.761Z,61.68
2018-03-20T10:56:01.193Z,61.88
2018-03-20T10:58:29.601Z,61.49
2018-03-20T11:01:03.537Z,62.59
2018-03-20T11:03:31.981Z,62.77
2018-03-20T11:06:00.412Z,62.90
2018-03-20T11:08:28.932Z,63.14
2018-03-20T11:10:57.458Z,62.29
2018-03-20T11:13:25.982Z,60.38
2018-03-20T11:15:54.562Z,61.63
2018-03-20T11:18:22.927Z,59.99
2018-03-20T11:20:51.312Z,59.12
2018-03-20T11:23:19.671Z,56.71
2018-03-20T11:25:48.072Z,55.66
2018-03-20T11:28:16.735Z,54.53
2018-03-20T11:30:45.244Z,56.34
2018-03-20T11:33:13.762Z,56.01
2018-03-20T11:35:42.706Z,57.24
2018-03-20T11:38:11.091Z,56.00
2018-03-20T11:40:39.652Z,54.87
2018-03-20T11:43:08.089Z,56.37
2018-03-20T11:45:37.561Z,57.45
2018-03-20T11:48:05.977Z,56.44
2018-03-20T11:50:34.378Z,55.81
2018-03-20T11:53:03.004Z,54.89
2018-03-20T11:55:31.460Z,56.89
2018-03-20T11:58:00.284Z,58.15
2018-03-20T12:00:28.905Z,59.39
2018-03-20T12:02:57.357Z,60.30
2018-03-20T12:05:25.897Z,60.61
2018-03-20T12:07:56.037Z,58.55
2018-03-20T12:12:58.962Z,56.61
2018-03-20T12:15:27.348Z,55.94
2018-03-20T12:17:55.925Z,56.01
2018-03-20T12:20:24.612Z,55.39
2018-03-20T12:22:53.135Z,55.75
2018-03-20T12:25:21.557Z,52.71
2018-03-20T12:27:49.952Z,52.90
2018-03-20T12:30:18.464Z,54.17
2018-03-20T12:32:46.897Z,53.44
2018-03-20T12:35:15.764Z,54.11
2018-03-20T12:37:44.200Z,52.49
2018-03-20T12:40:12.608Z,53.31
2018-03-20T12:42:42.002Z,53.01
2018-03-20T12:45:10.480Z,53.69
2018-03-20T12:47:39.249Z,55.33
2018-03-20T12:50:07.799Z,53.82
2018-03-20T12:52:36.255Z,55.14
2018-03-20T12:55:04.662Z,54.87
2018-03-20T12:57:33.071Z,53.23
2018-03-20T13:00:01.532Z,54.34
2018-03-20T13:02:30.293Z,54.00
2018-03-20T13:04:59.004Z,54.34
2018-03-20T13:07:27.522Z,54.21
2018-03-20T13:09:56.093Z,54.28
2018-03-20T13:12:24.612Z,54.70
2018-03-20T13:14:53.000Z,55.35
2018-03-20T13:17:21.663Z,54.28
2018-03-20T13:19:50.162Z,52.68
2018-03-20T13:22:18.679Z,53.43
2018-03-20T13:24:47.254Z,52.65
2018-03-20T13:27:15.716Z,54.26
2018-03-20T13:29:44.105Z,55.75
2018-03-20T13:32:12.808Z,54.17
2018-03-20T13:34:41.192Z,55.04
2018-03-20T13:37:09.696Z,55.42
2018-03-20T13:39:38.219Z,56.48
2018-03-20T13:42:07.013Z,56.21
2018-03-20T13:44:35.430Z,56.67
2018-03-20T13:47:03.964Z,57.90
2018-03-20T13:49:32.571Z,56.23
2018-03-20T13:52:01.305Z,56.15
2018-03-20T13:54:30.060Z,55.33
2018-03-20T13:56:58.586Z,55.19
2018-03-20T13:59:27.122Z,57.11
2018-03-20T14:01:55.667Z,56.41
2018-03-20T14:04:24.139Z,57.84
2018-03-20T14:06:52.688Z,57.99
2018-03-20T14:09:21.340Z,57.65
2018-03-20T14:11:49.718Z,59.06
2018-03-20T14:14:18.434Z,56.81
2018-03-20T14:16:46.919Z,57.09
2018-03-20T14:19:15.426Z,57.29
2018-03-20T14:21:44.516Z,56.54
2018-03-20T14:24:12.999Z,55.27
2018-03-20T14:26:41.629Z,56.39
2018-03-20T14:29:10.093Z,55.16
2018-03-20T14:31:38.485Z,54.57
2018-03-20T14:34:06.896Z,56.03
2018-03-20T14:36:35.407Z,54.07
2018-03-20T14:39:03.918Z,55.30
2018-03-20T14:41:32.478Z,54.61
2018-03-20T14:44:00.981Z,55.35
2018-03-20T14:46:29.365Z,54.30
2018-03-20T14:48:57.962Z,53.33
2018-03-20T14:51:26.563Z,52.93
2018-03-20T14:53:54.970Z,52.68
2018-03-20T14:56:23.597Z,50.38
2018-03-20T15:01:24.473Z,51.19
2018-03-20T15:03:52.984Z,50.97
2018-03-20T15:06:21.665Z,51.65
2018-03-20T15:08:50.133Z,52.31
2018-03-20T15:11:18.495Z,54.74
2018-03-20T15:13:46.973Z,52.64
2018-03-20T15:16:15.847Z,53.59
2018-03-20T15:18:44.284Z,55.31
2018-03-20T15:21:12.680Z,55.89
2018-03-20T15:23:41.202Z,55.34
2018-03-20T15:26:09.740Z,55.10
2018-03-20T15:28:38.405Z,53.67
2018-03-20T15:31:06.837Z,52.24
2018-03-20T15:33:35.236Z,50.14
2018-03-20T15:36:03.669Z,50.52
2018-03-20T15:38:32.121Z,50.60
2018-03-20T15:41:00.809Z,51.60
2018-03-20T15:43:29.257Z,51.10
2018-03-20T15:45:57.693Z,50.11
2018-03-20T15:48:26.212Z,50.77
2018-03-20T15:50:54.625Z,49.92
2018-03-20T15:53:23.150Z,48.22
2018-03-20T15:55:51.559Z,47.67
2018-03-20T15:58:20.012Z,48.11
2018-03-20T16:00:48.641Z,47.51
2018-03-20T16:03:17.025Z,48.41
2018-03-20T16:05:45.412Z,47.72
2018-03-20T16:08:13.860Z,46.82
2018-03-20T16:10:42.273Z,47.65
2018-03-20T16:13:10.752Z,47.83
2018-03-20T16:15:39.168Z,47.52
2018-03-20T16:18:07.896Z,48.55
2018-03-20T16:20:36.416Z,48.13
2018-03-20T16:23:04.886Z,47.13
2018-03-20T16:25:33.505Z,46.65
2018-03-20T16:28:02.045Z,46.78
2018-03-20T16:30:30.462Z,47.41
2018-03-20T16:32:58.895Z,47.81
2018-03-20T16:35:27.549Z,47.74
2018-03-20T16:37:55.937Z,47.89
2018-03-20T16:40:24.339Z,48.90
2018-03-20T16:42:52.921Z,47.41
2018-03-20T16:45:21.642Z,45.50
2018-03-20T16:47:50.120Z,46.17
2018-03-20T16:50:19.034Z,46.08
2018-03-20T16:55:22.273Z,47.60
2018-03-20T16:57:50.682Z,47.47
2018-03-20T17:02:55.978Z,48.66
2018-03-20T17:05:24.415Z,48.76
2018-03-20T17:07:52.807Z,48.29
2018-03-20T17:10:21.264Z,50.81
2018-03-20T17:12:50.225Z,51.55
2018-03-20T17:15:18.659Z,51.57
2018-03-20T17:17:47.053Z,51.99
2018-03-20T17:20:15.446Z,51.55
2018-03-20T17:22:43.817Z,51.65
2018-03-20T17:25:12.188Z,50.51
2018-03-20T17:27:40.868Z,49.94
2018-03-20T17:30:09.630Z,50.32
2018-03-20T17:32:38.008Z,48.77
2018-03-20T17:35:06.372Z,48.54
2018-03-20T17:37:34.767Z,48.84
2018-03-20T17:40:03.360Z,47.95
2018-03-20T17:42:31.896Z,50.16
2018-03-20T17:45:00.425Z,49.27
2018-03-20T17:47:28.803Z,49.48
2018-03-20T17:49:57.398Z,48.39
2018-03-20T17:52:26.112Z,47.96
2018-03-20T17:54:54.733Z,49.20
2018-03-20T17:57:23.119Z,49.99
2018-03-20T17:59:51.942Z,49.34
2018-03-20T18:02:20.505Z,49.64
2018-03-20T18:04:48.900Z,49.65
2018-03-20T18:07:17.397Z,50.49
2018-03-20T18:09:45.855Z,50.34
2018-03-20T18:12:14.385Z,51.12
2018-03-20T18:14:42.818Z,50.15
2018-03-20T18:17:11.438Z,50.31
2018-03-20T18:19:39.992Z,50.89
2018-03-20T18:22:08.594Z,50.82
2018-03-20T18:24:37.223Z,51.27
2018-03-20T18:27:05.759Z,51.29
2018-03-20T18:29:34.147Z,52.60
2018-03-20T18:32:02.864Z,51.79
2018-03-20T18:34:31.275Z,50.29
2018-03-20T18:36:59.636Z,50.75
2018-03-20T18:39:28.253Z,50.42
2018-03-20T18:41:56.618Z,50.91
2018-03-20T18:44:25.271Z,52.16
2018-03-20T18:46:53.655Z,52.06
2018-03-20T18:49:22.057Z,50.89
2018-03-20T18:51:50.432Z,51.51
2018-03-20T18:54:19.019Z,51.65
2018-03-20T18:56:47.692Z,51.81
2018-03-20T18:59:16.071Z,50.93
2018-03-20T19:01:44.704Z,51.29
2018-03-20T19:04:13.191Z,52.67
2018-03-20T19:06:41.584Z,53.21
2018-03-20T19:09:10.000Z,52.67
2018-03-20T19:11:40.521Z,52.22
2018-03-20T19:14:09.071Z,52.14
2018-03-20T19:16:37.633Z,53.24
2018-03-20T19:19:06.329Z,53.09
2018-03-20T19:21:34.769Z,52.86
2018-03-20T19:24:03.394Z,52.98
2018-03-20T19:26:31.783Z,53.03
2018-03-20T19:29:00.167Z,52.82
2018-03-20T19:31:28.857Z,53.55
2018-03-20T19:33:57.384Z,53.86
2018-03-20T19:36:25.767Z,52.43
2018-03-20T19:38:54.167Z,53.02
2018-03-20T19:41:22.633Z,53.92
2018-03-20T19:43:51.062Z,54.74
2018-03-20T19:46:19.451Z,53.60
2018-03-20T19:48:47.921Z,53.27
2018-03-20T19:51:16.577Z,52.67
2018-03-20T19:53:44.936Z,54.16
2018-03-20T19:56:13.594Z,55.34
2018-03-20T19:58:41.960Z,56.05
2018-03-20T20:01:10.382Z,54.76
2018-03-20T20:03:38.894Z,55.11
2018-03-20T20:06:07.451Z,56.10
2018-03-20T20:08:35.937Z,55.88
2018-03-20T20:11:04.386Z,55.17
2018-03-20T20:13:33.194Z,55.53
2018-03-20T20:16:01.565Z,55.99
2018-03-20T20:18:29.940Z,55.73
2018-03-20T20:20:58.412Z,55.25
2018-03-20T20:23:26.782Z,54.39
2018-03-20T20:25:55.339Z,55.48
2018-03-20T20:28:23.813Z,55.50
2018-03-20T20:30:52.210Z,56.38
2018-03-20T20:33:20.579Z,56.16
2018-03-20T20:35:48.956Z,54.91
2018-03-20T20:38:17.335Z,55.33
2018-03-20T20:40:45.704Z,55.23
2018-03-20T20:43:14.095Z,54.23
2018-03-20T20:45:42.647Z,52.92
2018-03-20T20:48:11.253Z,53.12
2018-03-20T20:50:39.817Z,53.52
2018-03-20T20:53:08.246Z,54.48
2018-03-20T20:55:36.845Z,53.18
2018-03-20T20:58:05.318Z,53.23
2018-03-20T21:00:34.040Z,54.94
2018-03-20T21:03:02.409Z,54.64
2018-03-20T21:05:30.782Z,54.12
2018-03-20T21:07:59.167Z,53.46
2018-03-20T21:10:27.535Z,53.73
2018-03-20T21:12:55.910Z,53.32
2018-03-20T21:15:24.347Z,52.94
2018-03-20T21:17:52.803Z,52.61
2018-03-20T21:20:21.262Z,52.46
2018-03-20T21:22:49.750Z,52.90
2018-03-20T21:25:18.290Z,52.99
2018-03-20T21:27:46.978Z,52.49
2018-03-20T21:30:15.776Z,52.33
2018-03-20T21:32:44.185Z,52.16
2018-03-20T21:35:12.851Z,53.25
2018-03-20T21:37:41.497Z,52.89
2018-03-20T21:40:10.189Z,52.94
2018-03-20T21:42:38.744Z,53.06
2018-03-20T21:45:07.172Z,53.99
2018-03-20T21:47:35.588Z,53.15
2018-03-20T21:50:03.993Z,53.75
2018-03-20T21:52:32.498Z,53.17
2018-03-20T21:55:00.881Z,52.86
2018-03-20T21:57:29.396Z,52.96
2018-03-20T21:59:57.840Z,53.63
2018-03-20T22:02:26.507Z,53.95
2018-03-20T22:04:54.900Z,55.24
2018-03-20T22:07:23.316Z,55.19
2018-03-20T22:09:51.961Z,53.80
2018-03-20T22:12:20.616Z,53.58
2018-03-20T22:14:49.589Z,54.55
2018-03-20T22:17:18.032Z,54.50
2018-03-20T22:19:46.677Z,54.26
2018-03-20T22:22:15.074Z,53.25
2018-03-20T22:24:43.454Z,53.53
2018-03-20T22:27:11.846Z,53.84
2018-03-20T22:29:40.483Z,52.87
2018-03-20T22:32:08.955Z,53.44
2018-03-20T22:34:38.345Z,53.30
2018-03-20T22:37:06.752Z,53.05
2018-03-20T22:39:35.270Z,52.91
2018-03-20T22:42:03.719Z,53.06
2018-03-20T22:44:32.345Z,52.65
2018-03-20T22:47:00.916Z,52.68
2018-03-20T22:52:02.036Z,53.34
2018-03-20T22:54:30.470Z,53.15
2018-03-20T22:56:58.907Z,53.48
2018-03-20T22:59:27.500Z,53.19
2018-03-20T23:01:55.881Z,53.03
2018-03-20T23:04:24.422Z,53.20
2018-03-20T23:06:52.918Z,54.00
2018-03-20T23:09:21.364Z,54.19
2018-03-20T23:11:49.984Z,53.97
2018-03-20T23:14:18.492Z,54.57
2018-03-20T23:16:46.997Z,54.70
2018-03-20T23:19:16.304Z,55.55
2018-03-20T23:21:45.552Z,54.43
2018-03-20T23:24:14.285Z,55.46
2018-03-20T23:26:43.539Z,55.36
2018-03-20T23:29:11.921Z,54.80
2018-03-20T23:31:40.516Z,54.22
2018-03-20T23:34:08.909Z,54.45
2018-03-20T23:36:38.338Z,54.13
2018-03-20T23:39:06.745Z,54.05
2018-03-20T23:41:36.253Z,53.67
2018-03-20T23:44:04.841Z,53.47
2018-03-20T23:46:33.231Z,53.62
2018-03-20T23:49:01.988Z,53.73
2018-03-20T23:51:30.722Z,54.06
2018-03-20T23:53:59.126Z,54.50
2018-03-20T23:56:27.544Z,53.71
2018-03-20T23:58:55.930Z,53.50
